sensor_id;sensor_type;location;lat;lon;timestamp;pressure;altitude;pressure_sealevel;temperature;humidity
44044;BME280;29709;52.396;16.796;2022-12-24T00:00:44;100536.64;;;7.22;91.08
44044;BME280;29709;52.396;16.796;2022-12-24T00:03:48;100537.23;;;7.16;90.74
44044;BME280;29709;52.396;16.796;2022-12-24T00:07:16;100543.33;;;7.10;90.78
44044;BME280;29709;52.396;16.796;2022-12-24T00:10:20;100545.80;;;7.03;91.20
44044;BME280;29709;52.396;16.796;2022-12-24T00:13:23;100542.59;;;7.08;91.55
44044;BME280;29709;52.396;16.796;2022-12-24T00:16:26;100542.26;;;7.20;91.18
44044;BME280;29709;52.396;16.796;2022-12-24T00:19:30;100539.97;;;7.16;91.05
44044;BME280;29709;52.396;16.796;2022-12-24T00:22:33;100542.48;;;7.09;90.88
44044;BME280;29709;52.396;16.796;2022-12-24T00:25:36;100542.31;;;7.11;91.34
44044;BME280;29709;52.396;16.796;2022-12-24T00:28:42;100547.00;;;7.18;91.26
44044;BME280;29709;52.396;16.796;2022-12-24T00:31:45;100549.38;;;7.31;90.81
44044;BME280;29709;52.396;16.796;2022-12-24T00:34:48;100543.50;;;7.26;90.07
44044;BME280;29709;52.396;16.796;2022-12-24T00:38:17;100545.05;;;7.11;90.12
44044;BME280;29709;52.396;16.796;2022-12-24T00:41:20;100531.98;;;7.05;90.54
44044;BME280;29709;52.396;16.796;2022-12-24T00:44:26;100527.22;;;7.07;90.69
44044;BME280;29709;52.396;16.796;2022-12-24T00:47:29;100526.62;;;7.13;90.95
44044;BME280;29709;52.396;16.796;2022-12-24T00:50:32;100526.62;;;7.13;90.43
44044;BME280;29709;52.396;16.796;2022-12-24T00:53:35;100530.27;;;7.04;90.42
44044;BME280;29709;52.396;16.796;2022-12-24T00:56:38;100530.57;;;7.01;90.65
44044;BME280;29709;52.396;16.796;2022-12-24T00:59:42;100530.15;;;6.95;90.47
44044;BME280;29709;52.396;16.796;2022-12-24T01:02:45;100524.99;;;6.92;90.94
44044;BME280;29709;52.396;16.796;2022-12-24T01:06:20;100528.91;;;6.90;91.20
44044;BME280;29709;52.396;16.796;2022-12-24T01:09:23;100526.88;;;6.92;91.66
44044;BME280;29709;52.396;16.796;2022-12-24T01:12:26;100528.59;;;6.93;91.40
44044;BME280;29709;52.396;16.796;2022-12-24T01:15:30;100527.73;;;6.92;91.17
44044;BME280;29709;52.396;16.796;2022-12-24T01:18:33;100526.88;;;6.92;91.02
44044;BME280;29709;52.396;16.796;2022-12-24T01:21:36;100526.77;;;6.84;91.08
44044;BME280;29709;52.396;16.796;2022-12-24T01:24:43;100519.90;;;6.80;91.15
44044;BME280;29709;52.396;16.796;2022-12-24T01:27:46;100530.82;;;6.80;91.63
44044;BME280;29709;52.396;16.796;2022-12-24T01:30:50;100529.96;;;6.79;91.49
44044;BME280;29709;52.396;16.796;2022-12-24T01:34:23;100527.47;;;6.86;92.04
44044;BME280;29709;52.396;16.796;2022-12-24T01:37:26;100531.37;;;6.83;91.50
44044;BME280;29709;52.396;16.796;2022-12-24T01:40:31;100518.87;;;6.81;91.49
44044;BME280;29709;52.396;16.796;2022-12-24T01:43:46;100519.03;;;6.79;91.63
44044;BME280;29709;52.396;16.796;2022-12-24T01:46:56;100517.01;;;6.81;92.03
44044;BME280;29709;52.396;16.796;2022-12-24T01:50:03;100526.33;;;6.88;92.11
44044;BME280;29709;52.396;16.796;2022-12-24T01:53:37;100524.99;;;6.92;91.85
44044;BME280;29709;52.396;16.796;2022-12-24T01:56:47;100521.37;;;7.02;91.63
44044;BME280;29709;52.396;16.796;2022-12-24T01:59:54;100516.34;;;6.97;91.36
44044;BME280;29709;52.396;16.796;2022-12-24T02:03:00;100523.98;;;6.93;91.61
44044;BME280;29709;52.396;16.796;2022-12-24T02:06:04;100520.40;;;6.93;91.90
44044;BME280;29709;52.396;16.796;2022-12-24T02:09:07;100513.77;;;6.95;91.47
44044;BME280;29709;52.396;16.796;2022-12-24T02:12:11;100521.73;;;6.89;91.62
44044;BME280;29709;52.396;16.796;2022-12-24T02:15:16;100525.47;;;6.88;91.89
44044;BME280;29709;52.396;16.796;2022-12-24T02:19:45;100526.60;;;6.85;91.93
44044;BME280;29709;52.396;16.796;2022-12-24T02:22:06;100516.25;;;6.89;92.06
44044;BME280;29709;52.396;16.796;2022-12-24T02:32:28;100520.91;;;6.79;91.99
44044;BME280;29709;52.396;16.796;2022-12-24T02:38:51;100523.88;;;6.85;91.92
44044;BME280;29709;52.396;16.796;2022-12-24T02:41:57;100525.47;;;6.88;91.46
44044;BME280;29709;52.396;16.796;2022-12-24T02:45:35;100533.24;;;6.83;91.62
44044;BME280;29709;52.396;16.796;2022-12-24T02:48:42;100528.64;;;6.83;91.47
44044;BME280;29709;52.396;16.796;2022-12-24T02:51:46;100536.83;;;6.83;91.65
44044;BME280;29709;52.396;16.796;2022-12-24T02:54:49;100534.41;;;6.80;91.32
44044;BME280;29709;52.396;16.796;2022-12-24T02:58:05;100542.76;;;6.79;91.56
44044;BME280;29709;52.396;16.796;2022-12-24T03:08:13;100551.27;;;6.66;91.82
44044;BME280;29709;52.396;16.796;2022-12-24T03:11:19;100546.97;;;6.63;92.15
44044;BME280;29709;52.396;16.796;2022-12-24T03:14:22;100547.68;;;6.65;92.38
44044;BME280;29709;52.396;16.796;2022-12-24T03:17:27;100559.89;;;6.71;91.65
44044;BME280;29709;52.396;16.796;2022-12-24T03:20:39;100551.70;;;6.71;91.70
44044;BME280;29709;52.396;16.796;2022-12-24T03:23:43;100547.40;;;6.69;91.62
44044;BME280;29709;52.396;16.796;2022-12-24T03:27:13;100550.87;;;6.61;91.25
44044;BME280;29709;52.396;16.796;2022-12-24T03:30:17;100557.77;;;6.55;91.80
44044;BME280;29709;52.396;16.796;2022-12-24T03:33:20;100548.17;;;6.51;91.96
44044;BME280;29709;52.396;16.796;2022-12-24T03:36:23;100558.08;;;6.52;91.78
44044;BME280;29709;52.396;16.796;2022-12-24T03:39:27;100554.48;;;6.52;91.66
44044;BME280;29709;52.396;16.796;2022-12-24T03:42:30;100556.77;;;6.56;91.76
44044;BME280;29709;52.396;16.796;2022-12-24T03:45:33;100564.55;;;6.51;91.76
44044;BME280;29709;52.396;16.796;2022-12-24T03:48:36;100570.88;;;6.52;91.37
44044;BME280;29709;52.396;16.796;2022-12-24T03:51:39;100567.13;;;6.53;91.48
44044;BME280;29709;52.396;16.796;2022-12-24T03:54:44;100572.04;;;6.49;91.14
44044;BME280;29709;52.396;16.796;2022-12-24T03:58:12;100588.84;;;6.45;91.32
44044;BME280;29709;52.396;16.796;2022-12-24T04:01:16;100590.15;;;6.41;91.05
44044;BME280;29709;52.396;16.796;2022-12-24T04:04:19;100593.59;;;6.43;91.34
44044;BME280;29709;52.396;16.796;2022-12-24T04:07:22;100587.42;;;6.41;91.63
44044;BME280;29709;52.396;16.796;2022-12-24T04:10:25;100581.51;;;6.45;91.52
44044;BME280;29709;52.396;16.796;2022-12-24T04:13:29;100590.00;;;6.42;91.14
44044;BME280;29709;52.396;16.796;2022-12-24T04:16:33;100593.89;;;6.40;91.09
44044;BME280;29709;52.396;16.796;2022-12-24T04:19:36;100584.70;;;6.31;91.27
44044;BME280;29709;52.396;16.796;2022-12-24T04:22:39;100594.91;;;6.29;91.57
44044;BME280;29709;52.396;16.796;2022-12-24T04:25:43;100597.80;;;6.27;91.61
44044;BME280;29709;52.396;16.796;2022-12-24T04:29:14;100607.55;;;6.30;91.80
44044;BME280;29709;52.396;16.796;2022-12-24T04:32:17;100594.77;;;6.30;91.60
44044;BME280;29709;52.396;16.796;2022-12-24T04:35:20;100599.92;;;6.33;91.40
44044;BME280;29709;52.396;16.796;2022-12-24T04:38:23;100609.12;;;6.32;91.47
44044;BME280;29709;52.396;16.796;2022-12-24T04:41:26;100611.43;;;6.37;91.34
44044;BME280;29709;52.396;16.796;2022-12-24T04:44:29;100609.12;;;6.32;91.62
44044;BME280;29709;52.396;16.796;2022-12-24T04:47:32;100607.11;;;6.34;91.58
44044;BME280;29709;52.396;16.796;2022-12-24T04:50:36;100608.26;;;6.32;91.27
44044;BME280;29709;52.396;16.796;2022-12-24T04:53:40;100610.84;;;6.33;91.50
44044;BME280;29709;52.396;16.796;2022-12-24T04:56:43;100608.41;;;6.30;91.07
44044;BME280;29709;52.396;16.796;2022-12-24T05:00:15;100619.48;;;6.29;91.52
44044;BME280;29709;52.396;16.796;2022-12-24T05:03:18;100624.79;;;6.30;91.37
44044;BME280;29709;52.396;16.796;2022-12-24T05:06:27;100624.49;;;6.33;91.32
44044;BME280;29709;52.396;16.796;2022-12-24T05:09:31;100633.83;;;6.31;91.23
44044;BME280;29709;52.396;16.796;2022-12-24T05:12:34;100631.41;;;6.28;90.91
44044;BME280;29709;52.396;16.796;2022-12-24T05:15:37;100635.41;;;6.24;91.13
44044;BME280;29709;52.396;16.796;2022-12-24T05:18:40;100635.41;;;6.24;90.97
44044;BME280;29709;52.396;16.796;2022-12-24T05:21:43;100643.59;;;6.24;91.25
44044;BME280;29709;52.396;16.796;2022-12-24T05:24:56;100640.01;;;6.23;91.34
44044;BME280;29709;52.396;16.796;2022-12-24T05:28:38;100643.33;;;6.17;91.24
44044;BME280;29709;52.396;16.796;2022-12-24T05:31:42;100649.05;;;6.14;91.41
44044;BME280;29709;52.396;16.796;2022-12-24T05:34:46;100654.51;;;6.14;91.46
44044;BME280;29709;52.396;16.796;2022-12-24T05:37:50;100659.70;;;6.17;91.28
44044;BME280;29709;52.396;16.796;2022-12-24T05:40:53;100668.60;;;6.10;91.53
44044;BME280;29709;52.396;16.796;2022-12-24T05:43:56;100667.04;;;6.17;91.50
44044;BME280;29709;52.396;16.796;2022-12-24T05:46:59;100664.56;;;6.14;91.44
44044;BME280;29709;52.396;16.796;2022-12-24T05:50:04;100671.18;;;6.11;90.92
44044;BME280;29709;52.396;16.796;2022-12-24T05:53:07;100677.50;;;6.12;91.51
44044;BME280;29709;52.396;16.796;2022-12-24T05:56:13;100683.41;;;6.17;91.14
44044;BME280;29709;52.396;16.796;2022-12-24T05:59:43;100694.02;;;6.10;91.28
44044;BME280;29709;52.396;16.796;2022-12-24T06:02:46;100696.30;;;6.15;91.42
44044;BME280;29709;52.396;16.796;2022-12-24T06:05:58;100699.63;;;6.18;91.09
44044;BME280;29709;52.396;16.796;2022-12-24T06:09:01;100689.98;;;6.14;91.13
44044;BME280;29709;52.396;16.796;2022-12-24T06:12:05;100696.45;;;6.13;90.58
44044;BME280;29709;52.396;16.796;2022-12-24T06:15:09;100705.23;;;6.07;91.02
44044;BME280;29709;52.396;16.796;2022-12-24T06:18:12;100714.98;;;6.10;90.74
44044;BME280;29709;52.396;16.796;2022-12-24T06:21:16;100712.25;;;6.10;90.73
44044;BME280;29709;52.396;16.796;2022-12-24T06:24:47;100721.30;;;6.10;90.66
44044;BME280;29709;52.396;16.796;2022-12-24T06:27:50;100722.60;;;6.06;90.45
44044;BME280;29709;52.396;16.796;2022-12-24T06:30:53;100725.19;;;6.07;89.84
44044;BME280;29709;52.396;16.796;2022-12-24T06:33:57;100727.60;;;6.01;89.83
44044;BME280;29709;52.396;16.796;2022-12-24T06:37:00;100730.77;;;5.96;90.18
44044;BME280;29709;52.396;16.796;2022-12-24T06:40:04;100732.88;;;5.93;90.19
44044;BME280;29709;52.396;16.796;2022-12-24T06:43:08;100742.23;;;5.90;90.27
44044;BME280;29709;52.396;16.796;2022-12-24T06:46:12;100750.27;;;5.92;90.18
44044;BME280;29709;52.396;16.796;2022-12-24T06:49:16;100753.99;;;5.91;90.55
44044;BME280;29709;52.396;16.796;2022-12-24T06:52:19;100764.05;;;5.90;90.54
44044;BME280;29709;52.396;16.796;2022-12-24T06:55:47;100768.90;;;5.87;90.22
44044;BME280;29709;52.396;16.796;2022-12-24T06:58:51;100782.67;;;5.85;90.41
44044;BME280;29709;52.396;16.796;2022-12-24T07:01:54;100788.13;;;5.85;90.08
44044;BME280;29709;52.396;16.796;2022-12-24T07:04:57;100791.25;;;5.80;89.98
44044;BME280;29709;52.396;16.796;2022-12-24T07:08:00;100794.98;;;5.79;90.04
44044;BME280;29709;52.396;16.796;2022-12-24T07:11:03;100806.76;;;5.80;90.25
44044;BME280;29709;52.396;16.796;2022-12-24T07:14:07;100803.16;;;5.79;90.30
44044;BME280;29709;52.396;16.796;2022-12-24T07:17:10;100819.52;;;5.79;89.95
44044;BME280;29709;52.396;16.796;2022-12-24T07:20:15;100822.25;;;5.79;89.93
44044;BME280;29709;52.396;16.796;2022-12-24T07:23:20;100837.91;;;5.77;89.90
44044;BME280;29709;52.396;16.796;2022-12-24T07:26:53;100838.44;;;5.71;90.03
44044;BME280;29709;52.396;16.796;2022-12-24T07:29:56;100840.45;;;5.69;90.23
44044;BME280;29709;52.396;16.796;2022-12-24T07:33:00;100833.98;;;5.70;90.17
44044;BME280;29709;52.396;16.796;2022-12-24T07:36:07;100840.05;;;5.74;90.36
44044;BME280;29709;52.396;16.796;2022-12-24T07:39:12;100842.02;;;5.72;90.42
44044;BME280;29709;52.396;16.796;2022-12-24T07:42:16;100844.35;;;5.76;90.18
44044;BME280;29709;52.396;16.796;2022-12-24T07:45:21;100857.66;;;5.70;90.28
44044;BME280;29709;52.396;16.796;2022-12-24T07:48:27;100870.44;;;5.69;90.14
44044;BME280;29709;52.396;16.796;2022-12-24T07:51:59;100876.02;;;5.68;90.76
44044;BME280;29709;52.396;16.796;2022-12-24T07:55:02;100868.29;;;5.73;90.75
44044;BME280;29709;52.396;16.796;2022-12-24T07:58:06;100880.67;;;5.77;90.58
44044;BME280;29709;52.396;16.796;2022-12-24T08:01:11;100890.30;;;5.81;90.32
44044;BME280;29709;52.396;16.796;2022-12-24T08:04:16;100893.02;;;5.81;90.24
44044;BME280;29709;52.396;16.796;2022-12-24T08:07:21;100894.37;;;5.87;90.25
44044;BME280;29709;52.396;16.796;2022-12-24T08:10:27;100900.29;;;5.92;90.10
44044;BME280;29709;52.396;16.796;2022-12-24T08:13:32;100912.82;;;5.94;89.88
44044;BME280;29709;52.396;16.796;2022-12-24T08:17:05;100909.20;;;5.94;89.82
44044;BME280;29709;52.396;16.796;2022-12-24T08:20:09;100913.07;;;5.91;89.67
44044;BME280;29709;52.396;16.796;2022-12-24T08:23:12;100911.81;;;5.95;89.65
44044;BME280;29709;52.396;16.796;2022-12-24T08:26:17;100924.84;;;5.92;89.73
44044;BME280;29709;52.396;16.796;2022-12-24T08:29:22;100927.32;;;5.95;89.89
44044;BME280;29709;52.396;16.796;2022-12-24T08:32:27;100928.91;;;5.97;89.76
44044;BME280;29709;52.396;16.796;2022-12-24T08:35:32;100936.95;;;5.99;89.57
44044;BME280;29709;52.396;16.796;2022-12-24T08:38:37;100933.50;;;5.97;89.49
44044;BME280;29709;52.396;16.796;2022-12-24T08:42:11;100942.69;;;5.96;89.80
44044;BME280;29709;52.396;16.796;2022-12-24T08:45:15;100940.69;;;5.98;89.65
44044;BME280;29709;52.396;16.796;2022-12-24T08:48:18;100950.45;;;6.00;89.53
44044;BME280;29709;52.396;16.796;2022-12-24T08:51:23;100954.96;;;6.11;89.63
44044;BME280;29709;52.396;16.796;2022-12-24T08:54:28;100965.34;;;6.17;89.43
44044;BME280;29709;52.396;16.796;2022-12-24T08:57:36;100970.38;;;6.22;89.13
44044;BME280;29709;52.396;16.796;2022-12-24T09:00:40;100965.20;;;6.19;88.84
44044;BME280;29709;52.396;16.796;2022-12-24T09:03:44;100977.85;;;6.20;88.76
44044;BME280;29709;52.396;16.796;2022-12-24T09:07:18;100968.38;;;6.24;88.83
44044;BME280;29709;52.396;16.796;2022-12-24T09:10:24;100971.38;;;6.21;88.20
44044;BME280;29709;52.396;16.796;2022-12-24T09:13:28;100975.45;;;6.26;88.73
44044;BME280;29709;52.396;16.796;2022-12-24T09:16:31;100978.77;;;6.30;88.54
44044;BME280;29709;52.396;16.796;2022-12-24T09:19:35;100986.53;;;6.34;88.41
44044;BME280;29709;52.396;16.796;2022-12-24T09:22:40;100989.26;;;6.34;88.22
44044;BME280;29709;52.396;16.796;2022-12-24T09:25:46;100990.98;;;6.35;87.87
44044;BME280;29709;52.396;16.796;2022-12-24T09:28:56;100995.41;;;6.27;87.85
44044;BME280;29709;52.396;16.796;2022-12-24T09:32:27;100997.28;;;6.26;88.07
44044;BME280;29709;52.396;16.796;2022-12-24T09:35:30;101000.74;;;6.28;88.12
44044;BME280;29709;52.396;16.796;2022-12-24T09:38:36;101017.84;;;6.30;88.00
44044;BME280;29709;52.396;16.796;2022-12-24T09:41:55;101015.52;;;6.26;88.39
44044;BME280;29709;52.396;16.796;2022-12-24T09:45:09;101017.02;;;6.40;88.54
44044;BME280;29709;52.396;16.796;2022-12-24T09:48:45;101020.80;;;6.48;88.62
44044;BME280;29709;52.396;16.796;2022-12-24T09:51:57;101019.70;;;6.60;88.53
44044;BME280;29709;52.396;16.796;2022-12-24T10:02:00;101035.53;;;6.66;86.95
44044;BME280;29709;52.396;16.796;2022-12-24T10:05:11;101034.80;;;6.64;87.57
44044;BME280;29709;52.396;16.796;2022-12-24T10:21:59;101063.49;;;6.80;86.81
44044;BME280;29709;52.396;16.796;2022-12-24T10:28:21;101068.05;;;6.70;87.25
44044;BME280;29709;52.396;16.796;2022-12-24T10:31:29;101073.09;;;6.74;87.72
44044;BME280;29709;52.396;16.796;2022-12-24T10:34:44;101077.30;;;6.78;87.31
44044;BME280;29709;52.396;16.796;2022-12-24T10:37:48;101074.99;;;6.83;87.50
44044;BME280;29709;52.396;16.796;2022-12-24T10:40:55;101078.20;;;6.88;87.20
44044;BME280;29709;52.396;16.796;2022-12-24T10:44:03;101078.30;;;6.87;87.26
44044;BME280;29709;52.396;16.796;2022-12-24T10:47:08;101088.99;;;6.90;87.44
44044;BME280;29709;52.396;16.796;2022-12-24T10:50:18;101085.67;;;6.96;87.06
44044;BME280;29709;52.396;16.796;2022-12-24T10:56:43;101103.84;;;7.07;86.91
44044;BME280;29709;52.396;16.796;2022-12-24T10:59:53;101107.34;;;7.18;86.86
44044;BME280;29709;52.396;16.796;2022-12-24T11:03:18;101101.58;;;7.12;86.53
44044;BME280;29709;52.396;16.796;2022-12-24T11:06:15;101095.60;;;6.97;87.03
44044;BME280;29709;52.396;16.796;2022-12-24T11:09:37;101103.70;;;6.99;87.44
44044;BME280;29709;52.396;16.796;2022-12-24T11:12:48;101101.97;;;7.07;87.34
44044;BME280;29709;52.396;16.796;2022-12-24T11:19:14;101111.08;;;7.17;87.05
44044;BME280;29709;52.396;16.796;2022-12-24T11:22:25;101111.50;;;7.13;86.67
44044;BME280;29709;52.396;16.796;2022-12-24T11:25:34;101124.45;;;7.11;86.89
44044;BME280;29709;52.396;16.796;2022-12-24T11:28:40;101118.66;;;7.04;87.27
44044;BME280;29709;52.396;16.796;2022-12-24T11:32:18;101122.25;;;7.05;86.81
44044;BME280;29709;52.396;16.796;2022-12-24T11:35:23;101119.77;;;6.92;86.87
44044;BME280;29709;52.396;16.796;2022-12-24T11:38:29;101128.68;;;6.94;87.63
44044;BME280;29709;52.396;16.796;2022-12-24T11:41:38;101130.02;;;7.00;87.08
44044;BME280;29709;52.396;16.796;2022-12-24T11:44:48;101132.13;;;6.96;86.67
44044;BME280;29709;52.396;16.796;2022-12-24T11:47:53;101138.88;;;6.92;86.94
44044;BME280;29709;52.396;16.796;2022-12-24T11:51:26;101151.10;;;6.88;87.30
44044;BME280;29709;52.396;16.796;2022-12-24T11:54:34;101139.42;;;6.86;87.12
44044;BME280;29709;52.396;16.796;2022-12-24T11:57:55;101150.68;;;6.92;87.04
44044;BME280;29709;52.396;16.796;2022-12-24T12:01:13;101153.55;;;6.91;87.62
44044;BME280;29709;52.396;16.796;2022-12-24T12:04:22;101160.66;;;7.03;87.49
44044;BME280;29709;52.396;16.796;2022-12-24T12:07:29;101155.23;;;7.13;87.05
44044;BME280;29709;52.396;16.796;2022-12-24T12:10:36;101166.21;;;7.22;87.37
44044;BME280;29709;52.396;16.796;2022-12-24T12:13:45;101174.59;;;7.31;86.86
44044;BME280;29709;52.396;16.796;2022-12-24T12:26:35;101173.79;;;7.09;86.29
44044;BME280;29709;52.396;16.796;2022-12-24T12:30:13;101185.53;;;7.00;86.84
44044;BME280;29709;52.396;16.796;2022-12-24T12:33:25;101181.23;;;7.07;87.65
44044;BME280;29709;52.396;16.796;2022-12-24T12:39:44;101178.25;;;7.10;86.72
44044;BME280;29709;52.396;16.796;2022-12-24T12:42:54;101182.05;;;6.98;87.01
44044;BME280;29709;52.396;16.796;2022-12-24T12:59:04;101214.32;;;7.35;86.47
44044;BME280;29709;52.396;16.796;2022-12-24T13:05:40;101220.66;;;7.35;86.31
44044;BME280;29709;52.396;16.796;2022-12-24T13:12:13;101223.24;;;7.06;86.58
44044;BME280;29709;52.396;16.796;2022-12-24T13:18:41;101242.73;;;6.92;87.25
44044;BME280;29709;52.396;16.796;2022-12-24T13:21:46;101240.20;;;7.00;87.37
44044;BME280;29709;52.396;16.796;2022-12-24T13:24:54;101247.45;;;7.11;87.21
44044;BME280;29709;52.396;16.796;2022-12-24T13:31:22;101248.98;;;7.04;86.83
44044;BME280;29709;52.396;16.796;2022-12-24T13:34:34;101252.64;;;6.93;86.58
44044;BME280;29709;52.396;16.796;2022-12-24T13:37:38;101257.91;;;6.85;86.81
44044;BME280;29709;52.396;16.796;2022-12-24T13:44:23;101256.52;;;6.90;87.23
44044;BME280;29709;52.396;16.796;2022-12-24T13:47:26;101264.59;;;6.92;87.30
44044;BME280;29709;52.396;16.796;2022-12-24T13:50:39;101257.77;;;6.86;87.02
44044;BME280;29709;52.396;16.796;2022-12-24T13:53:47;101248.58;;;6.87;87.35
44044;BME280;29709;52.396;16.796;2022-12-24T13:56:51;101255.31;;;6.83;86.99
44044;BME280;29709;52.396;16.796;2022-12-24T14:03:42;101262.57;;;6.73;87.38
44044;BME280;29709;52.396;16.796;2022-12-24T14:06:51;101269.96;;;6.61;88.03
44044;BME280;29709;52.396;16.796;2022-12-24T14:09:58;101266.37;;;6.61;87.52
44044;BME280;29709;52.396;16.796;2022-12-24T14:13:02;101268.09;;;6.62;88.44
44044;BME280;29709;52.396;16.796;2022-12-24T14:19:40;101284.29;;;6.75;87.94
44044;BME280;29709;52.396;16.796;2022-12-24T14:22:45;101290.38;;;6.78;87.97
44044;BME280;29709;52.396;16.796;2022-12-24T14:26:21;101302.81;;;6.71;87.93
44044;BME280;29709;52.396;16.796;2022-12-24T14:29:29;101302.77;;;6.82;87.90
44044;BME280;29709;52.396;16.796;2022-12-24T14:32:45;101306.85;;;6.88;87.55
44044;BME280;29709;52.396;16.796;2022-12-24T14:35:48;101312.31;;;6.88;87.35
44044;BME280;29709;52.396;16.796;2022-12-24T14:38:52;101306.22;;;6.84;87.18
44044;BME280;29709;52.396;16.796;2022-12-24T14:45:18;101313.18;;;6.88;87.18
44044;BME280;29709;52.396;16.796;2022-12-24T14:48:38;101317.77;;;6.88;87.19
44044;BME280;29709;52.396;16.796;2022-12-24T14:54:52;101330.30;;;6.90;87.21
44044;BME280;29709;52.396;16.796;2022-12-24T14:58:31;101329.95;;;6.84;87.03
44044;BME280;29709;52.396;16.796;2022-12-24T15:01:41;101340.52;;;6.77;87.11
44044;BME280;29709;52.396;16.796;2022-12-24T15:04:44;101349.85;;;6.75;86.88
44044;BME280;29709;52.396;16.796;2022-12-24T15:11:06;101364.88;;;6.80;86.78
44044;BME280;29709;52.396;16.796;2022-12-24T15:14:11;101357.91;;;6.76;86.82
44044;BME280;29709;52.396;16.796;2022-12-24T15:17:15;101363.64;;;6.73;86.92
44044;BME280;29709;52.396;16.796;2022-12-24T15:20:21;101361.78;;;6.74;87.40
44044;BME280;29709;52.396;16.796;2022-12-24T15:23:51;101373.44;;;6.76;86.96
44044;BME280;29709;52.396;16.796;2022-12-24T15:26:55;101371.47;;;6.78;86.89
44044;BME280;29709;52.396;16.796;2022-12-24T15:30:04;101379.53;;;6.79;87.06
44044;BME280;29709;52.396;16.796;2022-12-24T15:33:10;101379.39;;;6.81;86.94
44044;BME280;29709;52.396;16.796;2022-12-24T15:36:16;101388.46;;;6.81;86.67
44044;BME280;29709;52.396;16.796;2022-12-24T15:39:23;101397.39;;;6.83;86.84
44044;BME280;29709;52.396;16.796;2022-12-24T15:42:27;101394.39;;;6.86;86.96
44044;BME280;29709;52.396;16.796;2022-12-24T15:45:59;101414.05;;;6.80;86.66
44044;BME280;29709;52.396;16.796;2022-12-24T15:49:03;101412.52;;;6.87;86.48
44044;BME280;29709;52.396;16.796;2022-12-24T15:52:14;101414.74;;;6.93;86.90
44044;BME280;29709;52.396;16.796;2022-12-24T15:58:40;101418.82;;;6.99;86.33
44044;BME280;29709;52.396;16.796;2022-12-24T16:01:45;101431.73;;;6.97;86.21
44044;BME280;29709;52.396;16.796;2022-12-24T16:04:49;101427.63;;;7.03;86.26
44044;BME280;29709;52.396;16.796;2022-12-24T16:08:23;101426.90;;;7.01;86.16
44044;BME280;29709;52.396;16.796;2022-12-24T16:11:33;101425.16;;;7.00;86.16
44044;BME280;29709;52.396;16.796;2022-12-24T16:14:37;101439.70;;;7.00;86.08
44044;BME280;29709;52.396;16.796;2022-12-24T16:17:47;101442.56;;;6.99;85.94
44044;BME280;29709;52.396;16.796;2022-12-24T16:20:52;101443.93;;;6.93;86.10
44044;BME280;29709;52.396;16.796;2022-12-24T16:24:06;101449.79;;;6.88;85.98
44044;BME280;29709;52.396;16.796;2022-12-24T16:27:12;101436.13;;;6.77;86.50
44044;BME280;29709;52.396;16.796;2022-12-24T16:30:16;101436.03;;;6.79;86.65
44044;BME280;29709;52.396;16.796;2022-12-24T16:33:45;101446.97;;;6.79;86.64
44044;BME280;29709;52.396;16.796;2022-12-24T16:36:49;101447.96;;;6.78;87.23
44044;BME280;29709;52.396;16.796;2022-12-24T16:39:52;101441.10;;;6.83;86.66
44044;BME280;29709;52.396;16.796;2022-12-24T16:42:56;101454.13;;;6.91;86.66
44044;BME280;29709;52.396;16.796;2022-12-24T16:46:12;101446.52;;;6.94;86.37
44044;BME280;29709;52.396;16.796;2022-12-24T16:49:19;101443.80;;;6.94;86.46
44044;BME280;29709;52.396;16.796;2022-12-24T16:52:27;101445.53;;;6.95;86.38
44044;BME280;29709;52.396;16.796;2022-12-24T16:55:30;101453.27;;;6.90;86.34
44044;BME280;29709;52.396;16.796;2022-12-24T16:58:59;101455.27;;;6.77;86.54
44044;BME280;29709;52.396;16.796;2022-12-24T17:02:03;101460.39;;;6.71;86.56
44044;BME280;29709;52.396;16.796;2022-12-24T17:05:07;101465.11;;;6.69;86.96
44044;BME280;29709;52.396;16.796;2022-12-24T17:08:11;101474.31;;;6.68;87.41
44044;BME280;29709;52.396;16.796;2022-12-24T17:11:14;101480.38;;;6.71;87.19
44044;BME280;29709;52.396;16.796;2022-12-24T17:14:18;101477.64;;;6.71;87.42
44044;BME280;29709;52.396;16.796;2022-12-24T17:17:26;101475.29;;;6.78;87.30
44044;BME280;29709;52.396;16.796;2022-12-24T17:20:30;101478.49;;;6.83;87.17
44044;BME280;29709;52.396;16.796;2022-12-24T17:23:33;101486.29;;;6.87;86.69
44044;BME280;29709;52.396;16.796;2022-12-24T17:27:02;101480.45;;;6.92;86.56
44044;BME280;29709;52.396;16.796;2022-12-24T17:30:06;101493.74;;;6.85;86.34
44044;BME280;29709;52.396;16.796;2022-12-24T17:33:10;101491.64;;;6.89;86.90
44044;BME280;29709;52.396;16.796;2022-12-24T17:36:13;101501.21;;;6.83;86.69
44044;BME280;29709;52.396;16.796;2022-12-24T17:39:16;101510.90;;;6.76;86.70
44044;BME280;29709;52.396;16.796;2022-12-24T17:42:20;101501.10;;;6.74;87.19
44044;BME280;29709;52.396;16.796;2022-12-24T17:45:23;101501.10;;;6.74;87.33
44044;BME280;29709;52.396;16.796;2022-12-24T17:48:26;101511.77;;;6.77;87.06
44044;BME280;29709;52.396;16.796;2022-12-24T17:51:29;101514.00;;;6.83;87.07
44044;BME280;29709;52.396;16.796;2022-12-24T17:54:35;101513.41;;;6.79;86.50
44044;BME280;29709;52.396;16.796;2022-12-24T17:58:04;101515.90;;;6.60;86.72
44044;BME280;29709;52.396;16.796;2022-12-24T18:01:11;101519.51;;;6.49;87.03
44044;BME280;29709;52.396;16.796;2022-12-24T18:04:14;101534.77;;;6.52;87.30
44044;BME280;29709;52.396;16.796;2022-12-24T18:07:18;101520.98;;;6.53;87.56
44044;BME280;29709;52.396;16.796;2022-12-24T18:10:21;101546.30;;;6.44;87.70
44044;BME280;29709;52.396;16.796;2022-12-24T18:13:24;101554.37;;;6.46;87.59
44044;BME280;29709;52.396;16.796;2022-12-24T18:16:37;101543.34;;;6.47;87.84